Time;durP1;ratioP1;P1;durP2;ratioP2;P2;SDS_P1;SDS_P2;PMS_P1;PMS_P2;Temp;Humidity;BMP_temperature;BMP_pressure;BME280_temperature;BME280_humidity;BME280_pressure;Samples;Min_cycle;Max_cycle;Signal;HPM_P1;HPM_P2
2021/07/18 00:00:47;;;;;;;;;;;22.30;69.10;;;;;;5112988;28;19924;-65
2021/07/18 00:03:13;;;;;;;;;;;22.30;68.80;;;;;;5113070;28;19924;-65
2021/07/18 00:05:39;;;;;;;;;;;22.30;69.00;;;;;;5112956;28;20002;-65
2021/07/18 00:08:06;;;;;;;;;;;22.30;68.90;;;;;;5113194;28;20080;-65
2021/07/18 00:10:32;;;;;;;;;;;22.20;68.90;;;;;;5113017;28;19924;-65
2021/07/18 00:12:59;;;;;;;;;;;22.20;69.30;;;;;;5112981;28;19931;-65
2021/07/18 00:15:25;;;;;;;;;;;22.20;69.30;;;;;;5112951;28;19931;-65
2021/07/18 00:17:51;;;;;;;;;;;22.10;69.40;;;;;;5094127;28;19924;-65
2021/07/18 00:20:17;;;;;;;;;;;22.10;69.40;;;;;;5113285;28;19981;-66
2021/07/18 00:22:43;;;;;;;;;;;22.10;69.50;;;;;;5115723;28;19961;-65
2021/07/18 00:25:11;;;;;;;;;;;22.10;69.50;;;;;;5117216;28;19959;-65
2021/07/18 00:27:37;;;;;;;;;;;22.10;69.50;;;;;;5116866;28;20016;-65
2021/07/18 00:30:04;;;;;;;;;;;22.00;69.50;;;;;;5116573;28;20267;-65
2021/07/18 00:32:30;;;;;;;;;;;22.00;69.80;;;;;;5116559;28;19924;-65
2021/07/18 00:34:56;;;;;;;;;;;22.00;69.60;;;;;;5116877;28;19934;-65
2021/07/18 00:37:22;;;;;;;;;;;22.00;69.60;;;;;;5116863;28;20072;-65
2021/07/18 00:39:48;;;;;;;;;;;22.00;69.70;;;;;;5116549;28;20061;-65
2021/07/18 00:42:18;;;;;;;;;;;21.90;69.80;;;;;;5109963;28;19924;-65
2021/07/18 00:44:45;;;;;;;;;;;21.90;69.90;;;;;;5116490;28;20015;-65
2021/07/18 00:47:12;;;;;;;;;;;21.90;69.90;;;;;;5116192;28;20397;-65
2021/07/18 00:49:38;;;;;;;;;;;21.90;70.10;;;;;;5116626;28;19980;-65
2021/07/18 00:52:05;;;;;;;;;;;21.90;70.10;;;;;;5115310;28;19923;-65
2021/07/18 00:54:32;;;;;;;;;;;21.90;70.00;;;;;;5116078;28;19924;-65
2021/07/18 00:56:59;;;;;;;;;;;21.90;70.20;;;;;;5116437;28;19969;-65
2021/07/18 00:59:25;;;;;;;;;;;21.80;70.00;;;;;;5116443;28;19930;-65
2021/07/18 01:01:52;;;;;;;;;;;21.80;70.20;;;;;;5115681;28;19931;-65
2021/07/18 01:04:19;;;;;;;;;;;21.80;70.40;;;;;;5115937;28;20008;-65
2021/07/18 01:06:47;;;;;;;;;;;21.80;70.30;;;;;;5115807;28;20695;-65
2021/07/18 01:09:15;;;;;;;;;;;21.80;70.40;;;;;;5115998;28;19924;-65
2021/07/18 01:11:41;;;;;;;;;;;21.80;70.30;;;;;;5115967;28;19946;-65
2021/07/18 01:14:08;;;;;;;;;;;21.80;70.30;;;;;;5116081;28;19923;-65
2021/07/18 01:16:34;;;;;;;;;;;21.70;70.40;;;;;;5113321;28;20283;-65
2021/07/18 01:19:00;;;;;;;;;;;21.70;70.30;;;;;;5115821;28;20374;-65
2021/07/18 01:21:26;;;;;;;;;;;21.70;70.40;;;;;;5115873;28;19928;-65
2021/07/18 01:23:53;;;;;;;;;;;21.70;70.40;;;;;;5115805;28;19924;-65
2021/07/18 01:26:19;;;;;;;;;;;21.70;70.40;;;;;;5115965;28;19931;-65
2021/07/18 01:28:47;;;;;;;;;;;21.70;70.60;;;;;;5115353;28;19967;-65
2021/07/18 01:31:13;;;;;;;;;;;21.70;70.60;;;;;;5115341;28;19924;-65
2021/07/18 01:33:39;;;;;;;;;;;21.70;70.40;;;;;;5114710;28;20024;-65
2021/07/18 01:36:05;;;;;;;;;;;21.70;70.40;;;;;;5115241;28;20427;-65
2021/07/18 01:38:31;;;;;;;;;;;21.70;70.60;;;;;;5115683;28;19969;-65
2021/07/18 01:40:57;;;;;;;;;;;21.70;70.80;;;;;;5114957;28;20014;-65
2021/07/18 01:43:24;;;;;;;;;;;21.60;70.60;;;;;;5115600;28;19931;-65
2021/07/18 01:45:50;;;;;;;;;;;21.60;70.60;;;;;;5114514;28;20053;-65
2021/07/18 01:48:16;;;;;;;;;;;21.60;70.60;;;;;;5115062;28;20419;-65
2021/07/18 01:50:43;;;;;;;;;;;21.50;70.70;;;;;;5115272;28;20371;-65
2021/07/18 01:53:09;;;;;;;;;;;21.50;71.00;;;;;;5115099;28;19970;-65
2021/07/18 01:55:35;;;;;;;;;;;21.50;71.10;;;;;;5115145;28;20485;-65
2021/07/18 01:58:02;;;;;;;;;;;21.50;71.20;;;;;;5114851;28;19974;-65
2021/07/18 02:00:28;;;;;;;;;;;21.50;71.30;;;;;;5115113;28;20464;-65
2021/07/18 02:02:54;;;;;;;;;;;21.50;71.20;;;;;;5114894;28;19924;-65
2021/07/18 02:05:20;;;;;;;;;;;21.40;71.30;;;;;;5114638;28;19959;-65
2021/07/18 02:07:47;;;;;;;;;;;21.40;71.40;;;;;;5114825;28;19970;-65
2021/07/18 02:10:16;;;;;;;;;;;21.40;71.30;;;;;;5115093;28;20010;-65
2021/07/18 02:12:43;;;;;;;;;;;21.40;71.60;;;;;;5115208;28;20012;-65
2021/07/18 02:15:10;;;;;;;;;;;21.40;71.40;;;;;;5114286;28;20029;-65
2021/07/18 02:17:36;;;;;;;;;;;21.30;71.50;;;;;;5114422;28;20061;-65
2021/07/18 02:20:06;;;;;;;;;;;21.30;71.60;;;;;;5114773;28;19931;-65
2021/07/18 02:22:40;;;;;;;;;;;21.30;71.90;;;;;;5114129;28;19949;-65
2021/07/18 02:25:06;;;;;;;;;;;21.30;71.70;;;;;;5114432;28;20279;-65
2021/07/18 02:27:33;;;;;;;;;;;21.30;71.80;;;;;;5114172;28;19999;-65
2021/07/18 02:29:59;;;;;;;;;;;21.30;71.80;;;;;;5114568;28;20053;-65
2021/07/18 02:32:25;;;;;;;;;;;21.30;71.70;;;;;;5114387;28;20462;-64
2021/07/18 02:34:51;;;;;;;;;;;21.20;71.80;;;;;;5114307;28;19924;-65
2021/07/18 02:37:17;;;;;;;;;;;21.20;71.60;;;;;;5114155;28;19931;-65
2021/07/18 02:39:43;;;;;;;;;;;21.20;71.50;;;;;;5114197;28;20297;-65
2021/07/18 02:42:09;;;;;;;;;;;21.20;71.70;;;;;;5102622;28;20021;-65
2021/07/18 02:44:35;;;;;;;;;;;21.20;71.80;;;;;;5113001;28;19924;-65
2021/07/18 02:47:01;;;;;;;;;;;21.20;71.80;;;;;;5114053;28;20386;-65
2021/07/18 02:49:28;;;;;;;;;;;21.10;71.70;;;;;;5113325;28;20349;-65
2021/07/18 02:51:54;;;;;;;;;;;21.10;71.80;;;;;;5114177;28;19924;-65
2021/07/18 02:54:20;;;;;;;;;;;21.00;71.90;;;;;;5114137;28;20388;-65
2021/07/18 02:56:46;;;;;;;;;;;21.00;72.10;;;;;;5113735;28;20375;-65
2021/07/18 02:59:12;;;;;;;;;;;20.90;72.20;;;;;;5114185;28;20010;-65
2021/07/18 03:01:39;;;;;;;;;;;20.90;72.40;;;;;;5095223;28;20566;-65
2021/07/18 03:04:14;;;;;;;;;;;20.90;72.40;;;;;;5113536;28;19998;-65
2021/07/18 03:06:47;;;;;;;;;;;20.90;72.40;;;;;;5113394;28;19928;-65
2021/07/18 03:09:20;;;;;;;;;;;20.90;72.50;;;;;;5113662;28;19955;-65
2021/07/18 03:11:53;;;;;;;;;;;20.90;72.40;;;;;;5113572;28;19947;-65
2021/07/18 03:14:28;;;;;;;;;;;20.90;72.50;;;;;;5113977;28;20014;-65
2021/07/18 03:17:04;;;;;;;;;;;20.90;72.50;;;;;;5100309;28;20375;-65
2021/07/18 03:19:36;;;;;;;;;;;20.90;72.40;;;;;;5113681;28;19924;-65
2021/07/18 03:22:11;;;;;;;;;;;20.80;72.60;;;;;;5113304;28;19923;-65
2021/07/18 03:24:44;;;;;;;;;;;20.80;72.80;;;;;;5113640;28;19949;-65
2021/07/18 03:27:17;;;;;;;;;;;20.80;72.60;;;;;;5113202;28;19931;-65
2021/07/18 03:29:50;;;;;;;;;;;20.80;72.80;;;;;;5113289;28;19923;-65
2021/07/18 03:32:19;;;;;;;;;;;20.70;72.80;;;;;;5113513;28;19924;-65
2021/07/18 03:34:48;;;;;;;;;;;20.70;72.80;;;;;;5113430;28;19927;-66
2021/07/18 03:37:15;;;;;;;;;;;20.70;73.00;;;;;;5113357;28;19924;-65
2021/07/18 03:39:43;;;;;;;;;;;20.70;72.70;;;;;;5113309;28;19923;-65
2021/07/18 03:42:09;;;;;;;;;;;20.60;72.90;;;;;;5101594;28;19924;-65
2021/07/18 03:44:39;;;;;;;;;;;20.60;73.10;;;;;;5112811;28;19970;-65
2021/07/18 03:47:06;;;;;;;;;;;20.60;73.10;;;;;;5113172;28;20271;-65
2021/07/18 03:49:34;;;;;;;;;;;20.60;73.10;;;;;;5094943;28;20410;-65
2021/07/18 03:52:02;;;;;;;;;;;20.60;73.10;;;;;;5113266;28;19946;-65
2021/07/18 03:54:29;;;;;;;;;;;20.60;73.10;;;;;;5112803;28;19924;-65
2021/07/18 03:56:55;;;;;;;;;;;20.60;73.10;;;;;;5113320;28;19923;-65
2021/07/18 03:59:21;;;;;;;;;;;20.50;73.30;;;;;;5117481;28;20383;-65
2021/07/18 04:01:47;;;;;;;;;;;20.50;73.30;;;;;;5117358;28;20418;-65
2021/07/18 04:04:13;;;;;;;;;;;20.50;73.20;;;;;;5117433;28;19923;-65
2021/07/18 04:06:39;;;;;;;;;;;20.50;73.10;;;;;;5117175;28;20408;-65
2021/07/18 04:09:05;;;;;;;;;;;20.50;73.20;;;;;;5117034;28;19968;-65
2021/07/18 04:11:32;;;;;;;;;;;20.50;73.20;;;;;;5116333;28;20483;-65
2021/07/18 04:13:58;;;;;;;;;;;20.50;73.40;;;;;;5116927;28;19928;-65
2021/07/18 04:16:24;;;;;;;;;;;20.40;73.40;;;;;;5116678;28;20314;-65
2021/07/18 04:18:50;;;;;;;;;;;20.40;73.50;;;;;;5117421;28;20018;-65
2021/07/18 04:21:19;;;;;;;;;;;20.40;73.50;;;;;;5116948;28;19924;-65
2021/07/18 04:23:46;;;;;;;;;;;20.40;73.40;;;;;;5116744;28;19924;-65
2021/07/18 04:26:12;;;;;;;;;;;20.40;73.40;;;;;;5115939;28;19924;-65
2021/07/18 04:28:38;;;;;;;;;;;20.40;73.40;;;;;;5116470;28;19956;-65
2021/07/18 04:31:04;;;;;;;;;;;20.40;74.40;;;;;;5116619;28;19984;-65
2021/07/18 04:33:30;;;;;;;;;;;20.40;73.50;;;;;;5116681;28;20363;-65
2021/07/18 04:35:57;;;;;;;;;;;20.40;73.50;;;;;;5116179;28;19938;-65
2021/07/18 04:38:23;;;;;;;;;;;20.40;73.60;;;;;;5116806;28;19923;-65
2021/07/18 04:40:49;;;;;;;;;;;20.30;73.80;;;;;;5116352;28;20033;-65
2021/07/18 04:43:15;;;;;;;;;;;20.30;73.70;;;;;;5104374;28;19924;-65
2021/07/18 04:45:41;;;;;;;;;;;20.30;73.80;;;;;;5116209;28;20060;-65
2021/07/18 04:48:07;;;;;;;;;;;20.30;73.80;;;;;;5116703;28;20007;-65
2021/07/18 04:50:33;;;;;;;;;;;20.30;73.70;;;;;;5116494;28;19956;-65
2021/07/18 04:52:59;;;;;;;;;;;20.30;73.80;;;;;;5116272;28;19928;-65
2021/07/18 04:55:26;;;;;;;;;;;20.30;73.80;;;;;;5115965;28;20681;-65
2021/07/18 04:57:52;;;;;;;;;;;20.30;73.70;;;;;;5116149;28;19923;-65
2021/07/18 05:00:19;;;;;;;;;;;20.30;73.60;;;;;;5116457;28;19923;-65
2021/07/18 05:02:45;;;;;;;;;;;20.30;73.60;;;;;;5116533;28;19996;-65
2021/07/18 05:05:13;;;;;;;;;;;20.30;73.70;;;;;;5115523;28;19923;-65
2021/07/18 05:07:59;;;;;;;;;;;20.30;73.50;;;;;;5115454;28;20003;-65
2021/07/18 05:10:26;;;;;;;;;;;20.30;73.70;;;;;;5116020;28;19962;-65
2021/07/18 05:12:53;;;;;;;;;;;20.30;73.50;;;;;;5116171;28;20008;-65
2021/07/18 05:15:19;;;;;;;;;;;20.30;73.70;;;;;;5115901;28;19924;-65
2021/07/18 05:17:46;;;;;;;;;;;20.40;73.50;;;;;;5115959;28;19930;-65
2021/07/18 05:20:13;;;;;;;;;;;20.30;73.40;;;;;;5115255;28;19924;-65
2021/07/18 05:22:39;;;;;;;;;;;20.40;73.60;;;;;;5115480;28;20016;-65
2021/07/18 05:25:06;;;;;;;;;;;20.40;73.50;;;;;;5115742;28;20014;-65
2021/07/18 05:27:32;;;;;;;;;;;20.30;73.60;;;;;;5115375;28;19930;-65
2021/07/18 05:29:58;;;;;;;;;;;20.30;73.60;;;;;;5115665;28;20416;-65
2021/07/18 05:32:25;;;;;;;;;;;20.40;73.60;;;;;;5115644;28;20057;-65
2021/07/18 05:34:51;;;;;;;;;;;20.40;73.70;;;;;;5115922;28;20018;-65
2021/07/18 05:37:17;;;;;;;;;;;20.40;73.50;;;;;;5114996;28;20394;-65
2021/07/18 05:39:43;;;;;;;;;;;20.40;73.50;;;;;;5115174;28;19963;-65
2021/07/18 05:42:09;;;;;;;;;;;20.50;73.00;;;;;;5103688;28;19978;-65
2021/07/18 05:44:35;;;;;;;;;;;20.50;73.20;;;;;;5114589;28;20476;-65
2021/07/18 05:47:02;;;;;;;;;;;20.50;73.20;;;;;;5115468;28;20014;-65
2021/07/18 05:49:28;;;;;;;;;;;20.50;73.00;;;;;;5115411;28;19998;-65
2021/07/18 05:51:54;;;;;;;;;;;20.60;73.10;;;;;;5115111;28;19924;-65
2021/07/18 05:54:20;;;;;;;;;;;20.60;73.10;;;;;;5115446;28;20008;-65
2021/07/18 05:56:46;;;;;;;;;;;20.60;73.00;;;;;;5115397;28;20124;-65
2021/07/18 05:59:12;;;;;;;;;;;20.60;72.80;;;;;;5115110;28;19923;-65
2021/07/18 06:01:38;;;;;;;;;;;20.60;72.80;;;;;;5114833;28;20291;-65
2021/07/18 06:04:05;;;;;;;;;;;20.70;72.80;;;;;;5114722;28;20393;-65
2021/07/18 06:06:31;;;;;;;;;;;20.70;72.80;;;;;;5114535;28;19924;-65
2021/07/18 06:08:57;;;;;;;;;;;20.80;72.70;;;;;;5116101;27;20010;-65
2021/07/18 06:11:23;;;;;;;;;;;20.80;72.50;;;;;;5117855;27;19931;-65
2021/07/18 06:13:50;;;;;;;;;;;20.80;72.60;;;;;;5119688;27;20271;-65
2021/07/18 06:16:16;;;;;;;;;;;20.90;72.40;;;;;;5132497;27;19972;-65
2021/07/18 06:18:42;;;;;;;;;;;20.90;72.50;;;;;;5101026;28;20324;-65
2021/07/18 06:21:08;;;;;;;;;;;20.90;72.50;;;;;;5108840;28;20412;-65
2021/07/18 06:23:34;;;;;;;;;;;21.00;72.20;;;;;;5116813;27;19931;-65
2021/07/18 06:26:01;;;;;;;;;;;21.00;72.20;;;;;;5131766;27;19966;-65
2021/07/18 06:28:27;;;;;;;;;;;21.10;72.20;;;;;;5130078;27;20067;-65
2021/07/18 06:30:55;;;;;;;;;;;21.20;72.00;;;;;;5128684;27;19932;-65
2021/07/18 06:33:21;;;;;;;;;;;21.20;72.00;;;;;;5123255;27;19932;-65
2021/07/18 06:35:47;;;;;;;;;;;21.20;71.10;;;;;;5129203;27;19928;-65
2021/07/18 06:38:13;;;;;;;;;;;21.30;71.40;;;;;;5127026;27;19923;-66
2021/07/18 06:40:39;;;;;;;;;;;21.30;71.20;;;;;;5112529;27;19924;-65
2021/07/18 06:43:05;;;;;;;;;;;21.40;70.90;;;;;;5128479;27;19931;-65
2021/07/18 06:45:31;;;;;;;;;;;21.40;70.80;;;;;;5123334;27;20022;-66
2021/07/18 06:47:58;;;;;;;;;;;21.40;70.60;;;;;;5129109;27;20017;-65
2021/07/18 06:50:24;;;;;;;;;;;21.50;70.90;;;;;;5132205;27;20014;-65
2021/07/18 06:52:50;;;;;;;;;;;21.50;70.30;;;;;;5124114;27;19968;-64
2021/07/18 06:55:16;;;;;;;;;;;21.60;70.50;;;;;;5124833;27;20007;-65
2021/07/18 06:57:46;;;;;;;;;;;21.70;70.40;;;;;;5113306;28;19931;-65
2021/07/18 07:00:12;;;;;;;;;;;21.80;70.20;;;;;;5113926;28;19931;-65
2021/07/18 07:02:38;;;;;;;;;;;21.80;69.90;;;;;;5113700;28;19983;-65
2021/07/18 07:05:05;;;;;;;;;;;22.00;69.70;;;;;;5112771;28;20049;-65
2021/07/18 07:07:31;;;;;;;;;;;22.00;69.50;;;;;;5106993;28;19998;-66
2021/07/18 07:09:57;;;;;;;;;;;22.20;69.20;;;;;;5112903;28;19988;-65
2021/07/18 07:12:24;;;;;;;;;;;22.30;68.50;;;;;;5113499;28;20299;-66
2021/07/18 07:14:50;;;;;;;;;;;22.40;68.50;;;;;;5112365;28;20006;-65
2021/07/18 07:17:16;;;;;;;;;;;22.60;67.60;;;;;;5113581;28;20436;-65
2021/07/18 07:19:42;;;;;;;;;;;22.60;67.20;;;;;;5110575;28;20002;-65
2021/07/18 07:22:08;;;;;;;;;;;22.70;67.70;;;;;;5113525;28;20004;-65
2021/07/18 07:24:34;;;;;;;;;;;22.80;67.30;;;;;;5111613;27;19924;-66
2021/07/18 07:27:01;;;;;;;;;;;23.00;66.70;;;;;;5094515;28;20374;-65
2021/07/18 07:29:27;;;;;;;;;;;23.10;66.30;;;;;;5112891;28;20282;-65
2021/07/18 07:31:53;;;;;;;;;;;23.30;66.20;;;;;;5119754;27;19968;-65
2021/07/18 07:34:19;;;;;;;;;;;23.50;66.00;;;;;;5124270;27;19967;-65
2021/07/18 07:36:45;;;;;;;;;;;23.60;65.20;;;;;;5129244;27;19953;-65
2021/07/18 07:39:12;;;;;;;;;;;23.80;64.70;;;;;;5108556;27;20002;-65
2021/07/18 07:41:38;;;;;;;;;;;24.00;64.20;;;;;;5112897;28;20056;-66
2021/07/18 07:44:05;;;;;;;;;;;24.10;63.50;;;;;;5098245;28;19924;-65
2021/07/18 07:46:31;;;;;;;;;;;24.20;63.40;;;;;;5111520;28;19939;-65
2021/07/18 07:48:57;;;;;;;;;;;24.30;62.80;;;;;;5101777;28;20002;-66
2021/07/18 07:51:23;;;;;;;;;;;24.30;63.10;;;;;;5112495;28;19924;-65
2021/07/18 07:53:53;;;;;;;;;;;24.30;62.50;;;;;;5103954;28;20032;-66
2021/07/18 07:56:19;;;;;;;;;;;24.40;62.90;;;;;;5110887;28;20398;-65
2021/07/18 07:58:46;;;;;;;;;;;24.50;62.90;;;;;;5112490;28;19923;-65
2021/07/18 08:01:12;;;;;;;;;;;24.80;62.50;;;;;;5113160;28;19924;-65
2021/07/18 08:03:38;;;;;;;;;;;25.00;61.90;;;;;;5112882;28;20056;-65
2021/07/18 08:06:04;;;;;;;;;;;25.20;61.00;;;;;;5113190;28;19972;-66
2021/07/18 08:08:30;;;;;;;;;;;25.40;60.80;;;;;;5112662;28;19959;-66
2021/07/18 08:10:59;;;;;;;;;;;25.50;59.30;;;;;;5113036;28;19924;-66
2021/07/18 08:13:26;;;;;;;;;;;25.50;59.30;;;;;;5112519;28;19934;-66
2021/07/18 08:15:52;;;;;;;;;;;25.50;59.20;;;;;;5112466;28;19924;-66
2021/07/18 08:18:18;;;;;;;;;;;25.60;59.60;;;;;;5110657;28;20383;-66
2021/07/18 08:20:44;;;;;;;;;;;25.90;59.50;;;;;;5113251;28;19993;-66
2021/07/18 08:23:11;;;;;;;;;;;26.10;58.90;;;;;;5110553;28;20017;-66
2021/07/18 08:25:37;;;;;;;;;;;26.10;58.50;;;;;;5112637;28;19924;-66
2021/07/18 08:28:03;;;;;;;;;;;26.30;58.50;;;;;;5112400;28;20049;-66
2021/07/18 08:30:29;;;;;;;;;;;26.50;58.20;;;;;;5112527;28;19978;-66
2021/07/18 08:32:55;;;;;;;;;;;26.70;57.40;;;;;;5112908;28;19924;-66
2021/07/18 08:35:22;;;;;;;;;;;27.00;57.10;;;;;;5112679;28;20299;-66
2021/07/18 08:37:48;;;;;;;;;;;27.20;56.60;;;;;;5112388;28;19928;-66
2021/07/18 08:40:15;;;;;;;;;;;27.40;56.20;;;;;;5112780;28;19924;-66
2021/07/18 08:42:41;;;;;;;;;;;27.60;55.10;;;;;;5101394;28;20504;-66
2021/07/18 08:45:08;;;;;;;;;;;27.90;52.50;;;;;;5116228;28;20011;-66
2021/07/18 08:47:35;;;;;;;;;;;27.70;51.60;;;;;;5116664;28;20011;-66
2021/07/18 08:50:01;;;;;;;;;;;27.50;52.40;;;;;;5116358;28;20052;-66
2021/07/18 08:52:27;;;;;;;;;;;27.30;53.20;;;;;;5116432;28;20440;-65
2021/07/18 08:54:54;;;;;;;;;;;27.10;54.10;;;;;;5116286;28;19990;-66
2021/07/18 08:57:21;;;;;;;;;;;27.10;54.30;;;;;;5116066;28;20387;-66
2021/07/18 08:59:47;;;;;;;;;;;27.20;54.10;;;;;;5115479;28;19924;-66
2021/07/18 09:02:13;;;;;;;;;;;27.40;54.00;;;;;;5116614;28;19981;-66
2021/07/18 09:04:40;;;;;;;;;;;27.70;52.80;;;;;;5114882;28;19932;-66
2021/07/18 09:07:07;;;;;;;;;;;27.90;52.70;;;;;;5116184;28;20012;-66
2021/07/18 09:09:34;;;;;;;;;;;28.20;52.50;;;;;;5115480;28;19986;-66
2021/07/18 09:12:08;;;;;;;;;;;28.50;51.30;;;;;;5115994;28;20018;-66
2021/07/18 09:14:34;;;;;;;;;;;28.70;50.50;;;;;;5115474;28;19931;-66
2021/07/18 09:17:00;;;;;;;;;;;28.70;49.20;;;;;;5102096;28;20034;-66
2021/07/18 09:19:29;;;;;;;;;;;28.70;49.60;;;;;;5115868;28;19924;-66
2021/07/18 09:22:05;;;;;;;;;;;28.80;50.90;;;;;;5115804;28;19931;-66
2021/07/18 09:24:35;;;;;;;;;;;28.90;49.10;;;;;;5115696;28;20362;-66
2021/07/18 09:27:03;;;;;;;;;;;29.10;49.00;;;;;;5115526;28;19971;-66
2021/07/18 09:29:29;;;;;;;;;;;29.20;48.40;;;;;;5115253;28;20015;-66
2021/07/18 09:32:02;;;;;;;;;;;29.40;47.80;;;;;;5116013;28;19924;-66
2021/07/18 09:34:32;;;;;;;;;;;29.40;48.20;;;;;;5108589;28;20000;-66
2021/07/18 09:37:15;;;;;;;;;;;29.50;48.50;;;;;;5115710;28;19981;-67
2021/07/18 09:39:47;;;;;;;;;;;29.50;49.00;;;;;;5096601;28;19928;-66
2021/07/18 09:42:24;;;;;;;;;;;29.70;48.80;;;;;;5103200;28;20284;-66
2021/07/18 09:44:50;;;;;;;;;;;30.00;47.10;;;;;;5102599;28;19992;-66
2021/07/18 09:47:17;;;;;;;;;;;30.10;45.90;;;;;;5115113;28;19928;-66
2021/07/18 09:49:43;;;;;;;;;;;30.10;47.20;;;;;;5114917;28;19924;-66
2021/07/18 09:52:16;;;;;;;;;;;30.20;45.50;;;;;;5115475;28;19967;-67
2021/07/18 09:54:42;;;;;;;;;;;30.00;45.30;;;;;;5114151;28;20052;-66
2021/07/18 09:57:11;;;;;;;;;;;29.60;47.20;;;;;;5115286;28;20027;-67
2021/07/18 09:59:38;;;;;;;;;;;29.60;46.70;;;;;;5114723;28;19976;-66
2021/07/18 10:02:05;;;;;;;;;;;29.70;46.60;;;;;;5115243;28;19973;-66
2021/07/18 10:04:37;;;;;;;;;;;29.70;45.80;;;;;;5114528;28;19959;-66
2021/07/18 10:07:04;;;;;;;;;;;29.70;47.70;;;;;;5115137;28;19924;-67
2021/07/18 10:09:30;;;;;;;;;;;30.10;46.90;;;;;;5114748;28;20379;-66
2021/07/18 10:11:56;;;;;;;;;;;30.20;46.60;;;;;;5114695;28;19971;-67
2021/07/18 10:14:23;;;;;;;;;;;30.60;45.30;;;;;;5114405;28;19923;-66
2021/07/18 10:16:51;;;;;;;;;;;30.90;45.40;;;;;;5114774;28;19928;-67
2021/07/18 10:19:18;;;;;;;;;;;31.20;45.00;;;;;;5114335;28;19924;-67
2021/07/18 10:21:44;;;;;;;;;;;31.50;44.20;;;;;;5114608;28;19976;-67
2021/07/18 10:24:11;;;;;;;;;;;31.80;43.60;;;;;;5114326;28;20010;-67
2021/07/18 10:26:38;;;;;;;;;;;31.90;42.90;;;;;;5114304;28;20434;-67
2021/07/18 10:29:06;;;;;;;;;;;31.90;43.70;;;;;;5114151;28;20006;-66
2021/07/18 10:31:36;;;;;;;;;;;31.90;42.40;;;;;;5114996;28;20323;-67
2021/07/18 10:34:03;;;;;;;;;;;32.00;42.40;;;;;;5114047;28;19927;-67
2021/07/18 10:36:30;;;;;;;;;;;31.70;43.70;;;;;;5114288;28;20016;-67
2021/07/18 10:38:56;;;;;;;;;;;31.60;43.20;;;;;;5113959;28;19924;-67
2021/07/18 10:41:41;;;;;;;;;;;31.50;42.90;;;;;;5109408;28;19924;-67
2021/07/18 10:44:17;;;;;;;;;;;31.10;43.50;;;;;;5109311;28;19923;-67
2021/07/18 10:46:43;;;;;;;;;;;30.60;46.30;;;;;;5114313;28;20029;-67
2021/07/18 10:49:13;;;;;;;;;;;30.30;45.60;;;;;;5113797;28;20025;-66
2021/07/18 10:51:40;;;;;;;;;;;30.10;47.10;;;;;;5114352;28;19923;-66
2021/07/18 10:54:10;;;;;;;;;;;29.90;47.80;;;;;;5113954;28;20018;-66
2021/07/18 10:56:43;;;;;;;;;;;29.80;47.30;;;;;;5099982;28;19935;-66
2021/07/18 10:59:29;;;;;;;;;;;29.80;47.50;;;;;;5113378;28;19924;-66
2021/07/18 11:02:05;;;;;;;;;;;29.80;46.70;;;;;;5101750;28;19971;-67
2021/07/18 11:04:38;;;;;;;;;;;29.70;45.70;;;;;;5113403;28;19997;-66
2021/07/18 11:07:19;;;;;;;;;;;29.50;45.60;;;;;;5112663;28;19968;-66
2021/07/18 11:09:46;;;;;;;;;;;29.40;45.50;;;;;;5113057;28;19989;-66
2021/07/18 11:12:34;;;;;;;;;;;29.20;44.80;;;;;;5095057;28;19924;-66
2021/07/18 11:15:15;;;;;;;;;;;29.10;45.90;;;;;;5113033;28;20006;-66
2021/07/18 11:18:00;;;;;;;;;;;29.00;44.70;;;;;;5113873;28;20266;-66
2021/07/18 11:20:43;;;;;;;;;;;29.00;44.80;;;;;;5113920;28;19968;-66
2021/07/18 11:23:10;;;;;;;;;;;28.90;45.80;;;;;;5112821;28;20383;-66
2021/07/18 11:25:47;;;;;;;;;;;28.90;46.40;;;;;;5113294;28;20006;-66
2021/07/18 11:28:30;;;;;;;;;;;28.90;44.00;;;;;;5113050;28;20075;-66
2021/07/18 11:31:11;;;;;;;;;;;28.90;46.20;;;;;;5112996;28;20271;-66
2021/07/18 11:33:44;;;;;;;;;;;28.90;46.40;;;;;;5113129;28;20403;-66
2021/07/18 11:36:11;;;;;;;;;;;29.00;45.10;;;;;;5099547;28;19958;-66
2021/07/18 11:38:37;;;;;;;;;;;29.00;43.60;;;;;;5113346;28;19928;-66
2021/07/18 11:41:23;;;;;;;;;;;29.00;43.00;;;;;;5110556;28;19931;-66
2021/07/18 11:43:50;;;;;;;;;;;28.80;43.30;;;;;;5106154;28;20302;-66
2021/07/18 11:46:18;;;;;;;;;;;28.70;44.40;;;;;;5112493;28;19973;-68
2021/07/18 11:48:46;;;;;;;;;;;28.70;44.50;;;;;;5113307;28;20465;-66
2021/07/18 11:51:20;;;;;;;;;;;28.80;44.10;;;;;;5113181;28;20406;-66
2021/07/18 11:53:50;;;;;;;;;;;28.90;43.60;;;;;;5112905;28;19989;-66
2021/07/18 11:56:23;;;;;;;;;;;28.90;44.10;;;;;;5112994;28;19924;-66
2021/07/18 11:58:50;;;;;;;;;;;29.00;43.20;;;;;;5113076;28;19997;-66
2021/07/18 12:01:20;;;;;;;;;;;29.00;40.40;;;;;;5112853;28;19975;-66
2021/07/18 12:03:47;;;;;;;;;;;29.00;42.50;;;;;;5112784;28;20010;-66
2021/07/18 12:06:17;;;;;;;;;;;29.00;41.80;;;;;;5113210;28;20005;-66
2021/07/18 12:08:43;;;;;;;;;;;29.00;41.50;;;;;;5112756;28;19923;-66
2021/07/18 12:11:12;;;;;;;;;;;29.00;42.70;;;;;;5112844;28;19928;-66
2021/07/18 12:13:42;;;;;;;;;;;29.00;41.60;;;;;;5112889;28;19924;-66
2021/07/18 12:16:09;;;;;;;;;;;29.00;42.50;;;;;;5112868;28;19924;-66
2021/07/18 12:18:55;;;;;;;;;;;29.00;42.60;;;;;;5096552;28;19924;-66
2021/07/18 12:21:51;;;;;;;;;;;29.00;43.10;;;;;;5116457;28;20438;-66
2021/07/18 12:24:17;;;;;;;;;;;29.10;41.90;;;;;;5102898;28;19923;-66
2021/07/18 12:26:45;;;;;;;;;;;29.10;42.00;;;;;;5116962;28;20135;-66
2021/07/18 12:29:11;;;;;;;;;;;29.00;42.10;;;;;;5116382;28;19965;-66
2021/07/18 12:31:38;;;;;;;;;;;29.00;42.50;;;;;;5116971;28;20374;-66
2021/07/18 12:34:05;;;;;;;;;;;29.00;42.50;;;;;;5116350;28;19928;-66
2021/07/18 12:36:31;;;;;;;;;;;29.00;43.20;;;;;;5116881;28;19967;-66
2021/07/18 12:39:13;;;;;;;;;;;29.10;43.20;;;;;;5116170;28;19931;-66
2021/07/18 12:41:39;;;;;;;;;;;29.10;42.10;;;;;;5109189;28;19955;-66
2021/07/18 12:44:06;;;;;;;;;;;29.10;42.60;;;;;;5111384;28;20319;-66
2021/07/18 12:46:32;;;;;;;;;;;29.10;42.90;;;;;;5116602;28;19924;-66
2021/07/18 12:49:08;;;;;;;;;;;29.10;43.90;;;;;;5116398;28;20011;-66
2021/07/18 12:51:34;;;;;;;;;;;29.10;42.60;;;;;;5103147;28;20061;-66
2021/07/18 12:54:01;;;;;;;;;;;29.20;44.20;;;;;;5116024;28;20463;-66
2021/07/18 12:56:27;;;;;;;;;;;29.20;42.60;;;;;;5116082;28;19923;-66
2021/07/18 12:58:53;;;;;;;;;;;29.20;42.70;;;;;;5116043;28;19924;-66
2021/07/18 13:01:25;;;;;;;;;;;29.20;42.10;;;;;;5116096;28;19967;-66
2021/07/18 13:03:59;;;;;;;;;;;29.20;42.60;;;;;;5116102;28;19999;-66
2021/07/18 13:06:26;;;;;;;;;;;29.20;41.30;;;;;;5115972;28;20014;-66
2021/07/18 13:08:53;;;;;;;;;;;29.20;41.30;;;;;;5116138;28;19931;-66
2021/07/18 13:11:28;;;;;;;;;;;29.20;42.50;;;;;;5115756;28;20073;-66
2021/07/18 13:13:54;;;;;;;;;;;29.20;42.40;;;;;;5115658;28;19924;-66
2021/07/18 13:16:34;;;;;;;;;;;29.10;42.80;;;;;;5115636;28;19934;-66
2021/07/18 13:19:07;;;;;;;;;;;29.20;41.20;;;;;;5115718;28;20069;-66
2021/07/18 13:21:33;;;;;;;;;;;29.30;41.80;;;;;;5115931;28;20025;-66
2021/07/18 13:23:59;;;;;;;;;;;29.20;42.70;;;;;;5115556;28;19980;-66
2021/07/18 13:26:29;;;;;;;;;;;29.20;41.40;;;;;;5115802;28;19928;-66
2021/07/18 13:29:11;;;;;;;;;;;29.30;40.60;;;;;;5114573;28;20260;-66
2021/07/18 13:31:38;;;;;;;;;;;29.20;40.50;;;;;;5115763;28;20010;-66
2021/07/18 13:34:04;;;;;;;;;;;29.20;40.80;;;;;;5115198;28;20574;-66
2021/07/18 13:36:30;;;;;;;;;;;29.10;41.10;;;;;;5115565;28;20072;-66
2021/07/18 13:39:15;;;;;;;;;;;29.10;40.80;;;;;;5115327;28;19924;-66
2021/07/18 13:42:01;;;;;;;;;;;29.00;41.50;;;;;;5107609;28;20329;-66
2021/07/18 13:44:27;;;;;;;;;;;29.00;41.50;;;;;;5113331;28;19966;-66
2021/07/18 13:46:53;;;;;;;;;;;29.00;41.30;;;;;;5115375;28;19931;-66
2021/07/18 13:49:20;;;;;;;;;;;29.00;40.20;;;;;;5114349;28;19928;-66
2021/07/18 13:51:53;;;;;;;;;;;29.00;40.70;;;;;;5115343;28;20400;-66
2021/07/18 13:54:19;;;;;;;;;;;29.00;42.40;;;;;;5114985;28;20016;-66
2021/07/18 13:56:45;;;;;;;;;;;29.10;41.60;;;;;;5115573;28;20006;-66
2021/07/18 13:59:12;;;;;;;;;;;29.10;39.60;;;;;;5114584;28;19930;-66
2021/07/18 14:01:38;;;;;;;;;;;29.10;41.00;;;;;;5115088;28;19968;-66
2021/07/18 14:04:04;;;;;;;;;;;29.10;40.60;;;;;;5114850;28;19923;-66
2021/07/18 14:06:30;;;;;;;;;;;29.10;41.60;;;;;;5114845;28;20371;-66
2021/07/18 14:08:56;;;;;;;;;;;29.10;41.60;;;;;;5114985;28;19924;-66
2021/07/18 14:11:22;;;;;;;;;;;29.20;40.60;;;;;;5114461;28;20393;-66
2021/07/18 14:13:48;;;;;;;;;;;29.20;40.50;;;;;;5114765;28;19959;-66
2021/07/18 14:16:14;;;;;;;;;;;29.20;40.40;;;;;;5114821;28;19924;-66
2021/07/18 14:18:41;;;;;;;;;;;29.20;41.20;;;;;;5114391;28;19927;-66
2021/07/18 14:21:07;;;;;;;;;;;29.20;41.70;;;;;;5114611;28;20014;-66